Current Weather

Monmouth Exec

Belmar/Farmingdale, New Jersey (KBLM)

Report from: Friday, February 23, 2024 3:56 PM EST
Current time: Friday, February 23, 2024 4:31 PM EST

Nearby weather – Weather history – Daily summaries
Weather forecast

Temperature7.8°C (46.0°F)
Wind chill7.1°C (44.8°F)
Dew point6.1°C (43.0°F)
Winds 3 kts (1.5 m/s, 3.5 mph) North (350°)
Visibility9 mi. (14.5 km)
Altimeter29.45 in.Hg (997 mB)
PrecipitiationTrace
Precip last 3 hours0.01 in. (0 mm)
Relative humidity89 %
Density altitude-187 ft. (-57 m)
Sea-level pressure99.7 kPa (997 mB, 29.45 in.Hg)
Remarks Fully automated report
System requires maintenance
Automated weather observing station with precipitation discriminator
Pressure falling, then rising
Flight conditions Visual Meteorological Conditions
Raw dataKBLM 232056Z AUTO 35003KT 9SM -RA 08/06 A2945 RMK AO2 SLP974 P0000 60001 T00780061 55005 $
An error has occurred. This application may no longer respond until reloaded. Reload 🗙